createdAt,value
2023-03-26T00:01:54.323Z,13.12
2023-03-26T00:04:22.201Z,13.92
2023-03-26T00:06:50.372Z,12.69
2023-03-26T00:09:18.958Z,11.37
2023-03-26T00:11:46.868Z,11.33
2023-03-26T00:14:17.505Z,12.95
2023-03-26T00:16:47.725Z,13.98
2023-03-26T00:19:15.788Z,13.73
2023-03-26T00:21:43.711Z,12.30
2023-03-26T00:24:17.571Z,11.38
2023-03-26T00:26:48.528Z,12.35
2023-03-26T00:29:16.984Z,13.61
2023-03-26T00:31:46.666Z,13.18
2023-03-26T00:34:18.707Z,11.87
2023-03-26T00:36:47.374Z,11.60
2023-03-26T00:39:17.916Z,12.94
2023-03-26T00:41:45.765Z,12.97
2023-03-26T00:44:13.723Z,11.80
2023-03-26T00:46:42.085Z,11.32
2023-03-26T00:49:11.111Z,13.06
2023-03-26T00:51:39.490Z,13.35
2023-03-26T00:54:09.770Z,12.11
2023-03-26T00:56:38.914Z,11.52
2023-03-26T00:59:06.809Z,13.03
2023-03-26T01:01:34.560Z,13.48
2023-03-26T01:04:32.361Z,12.70
2023-03-26T01:07:21.925Z,11.27
2023-03-26T01:09:51.526Z,11.53
2023-03-26T01:12:22.537Z,13.31
2023-03-26T01:14:52.113Z,14.14
2023-03-26T01:17:19.939Z,12.73
2023-03-26T01:20:05.800Z,11.42
2023-03-26T01:22:36.847Z,11.26
2023-03-26T01:25:05.505Z,13.08
2023-03-26T01:27:41.222Z,13.96
2023-03-26T01:30:24.696Z,12.61
2023-03-26T01:33:21.781Z,11.30
2023-03-26T01:36:17.816Z,12.52
2023-03-26T01:39:21.047Z,13.83
2023-03-26T01:41:58.371Z,13.51
2023-03-26T01:44:48.165Z,12.13
2023-03-26T01:47:17.730Z,11.60
2023-03-26T01:49:45.504Z,13.02
2023-03-26T01:52:17.415Z,13.47
2023-03-26T01:54:46.691Z,12.14
2023-03-26T01:57:33.832Z,11.48
2023-03-26T02:00:28.467Z,13.01
2023-03-26T02:03:18.079Z,13.28
2023-03-26T02:06:05.101Z,11.55
2023-03-26T02:08:41.353Z,11.72
2023-03-26T02:11:19.974Z,13.38
2023-03-26T02:13:47.985Z,13.33
2023-03-26T02:16:17.474Z,11.88
2023-03-26T02:18:47.506Z,11.78
2023-03-26T02:21:22.159Z,13.29
2023-03-26T02:23:58.077Z,12.88
2023-03-26T02:26:26.104Z,11.63
2023-03-26T02:29:19.356Z,12.00
2023-03-26T02:31:48.642Z,13.20
2023-03-26T02:34:17.421Z,12.05
2023-03-26T02:36:51.396Z,11.66
2023-03-26T02:39:19.701Z,13.14
2023-03-26T02:41:53.638Z,13.74
2023-03-26T02:44:21.681Z,12.61
2023-03-26T02:47:09.865Z,11.37
2023-03-26T02:49:40.260Z,11.78
2023-03-26T02:52:08.436Z,13.52
2023-03-26T02:54:37.175Z,12.72
2023-03-26T02:57:23.622Z,11.19
2023-03-26T03:00:14.422Z,11.58
2023-03-26T03:03:09.605Z,13.57
2023-03-26T03:05:57.420Z,13.16
2023-03-26T03:08:30.970Z,11.77
2023-03-26T03:11:17.143Z,11.25
2023-03-26T03:13:48.328Z,12.88
2023-03-26T03:16:31.170Z,13.69
2023-03-26T03:19:03.161Z,12.25
2023-03-26T03:21:36.739Z,11.60
2023-03-26T03:24:05.647Z,12.73
2023-03-26T03:26:41.331Z,13.86
2023-03-26T03:29:17.443Z,12.67
2023-03-26T03:31:45.441Z,11.32
2023-03-26T03:34:25.570Z,12.32
2023-03-26T03:36:53.466Z,13.66
2023-03-26T03:39:36.143Z,12.39
2023-03-26T03:42:04.241Z,11.21
2023-03-26T03:44:32.292Z,12.43
2023-03-26T03:47:00.497Z,13.40
2023-03-26T03:49:28.255Z,12.56
2023-03-26T03:51:57.257Z,11.29
2023-03-26T03:54:33.293Z,12.58
2023-03-26T03:57:16.073Z,13.05
2023-03-26T04:00:06.969Z,11.62
2023-03-26T04:02:43.368Z,12.21
2023-03-26T04:05:12.655Z,13.65
2023-03-26T04:07:45.533Z,12.48
2023-03-26T04:10:43.937Z,11.39
2023-03-26T04:13:18.083Z,12.77
2023-03-26T04:16:03.658Z,13.25
2023-03-26T04:18:32.498Z,11.95
2023-03-26T04:21:07.410Z,11.35
2023-03-26T04:23:35.734Z,12.62
2023-03-26T04:26:18.690Z,13.76
2023-03-26T04:29:06.962Z,12.45
2023-03-26T04:31:38.443Z,11.33
2023-03-26T04:34:24.270Z,12.34
2023-03-26T04:37:03.532Z,13.48
2023-03-26T04:39:36.357Z,12.05
2023-03-26T04:42:23.151Z,11.93
2023-03-26T04:45:07.874Z,13.36
2023-03-26T04:47:37.231Z,13.02
2023-03-26T04:50:07.508Z,11.98
2023-03-26T04:52:37.241Z,12.03
2023-03-26T04:55:49.026Z,13.51
2023-03-26T04:58:33.037Z,12.22
2023-03-26T05:01:10.400Z,11.96
2023-03-26T05:03:40.889Z,13.23
2023-03-26T05:06:13.102Z,14.22
2023-03-26T05:08:41.962Z,13.44
2023-03-26T05:11:11.729Z,11.86
2023-03-26T05:13:42.932Z,11.90
2023-03-26T05:16:12.877Z,13.62
2023-03-26T05:18:55.395Z,13.83
2023-03-26T05:21:23.648Z,12.54
2023-03-26T05:23:51.614Z,12.04
2023-03-26T05:26:20.679Z,13.28
2023-03-26T05:28:48.630Z,14.13
2023-03-26T05:31:32.761Z,13.08
2023-03-26T05:34:01.065Z,12.00
2023-03-26T05:36:29.324Z,13.09
2023-03-26T05:39:08.834Z,13.91
2023-03-26T05:41:55.949Z,12.71
2023-03-26T05:44:28.769Z,12.12
2023-03-26T05:46:56.794Z,13.74
2023-03-26T05:49:26.635Z,14.07
2023-03-26T05:51:55.591Z,12.75
2023-03-26T05:54:55.741Z,12.84
2023-03-26T05:57:56.177Z,14.61
2023-03-26T06:00:43.060Z,13.39
2023-03-26T06:03:13.127Z,12.48
2023-03-26T06:06:15.607Z,13.83
2023-03-26T06:09:02.180Z,14.80
2023-03-26T06:11:32.346Z,13.04
2023-03-26T06:14:01.278Z,12.32
2023-03-26T06:16:29.277Z,13.74
2023-03-26T06:19:07.395Z,14.16
2023-03-26T06:21:55.366Z,12.42
2023-03-26T06:24:27.236Z,12.74
2023-03-26T06:27:20.726Z,14.70
2023-03-26T06:29:58.614Z,13.08
2023-03-26T06:33:01.734Z,12.33
2023-03-26T06:35:34.224Z,13.93
2023-03-26T06:38:02.231Z,13.10
2023-03-26T06:40:31.142Z,11.88
2023-03-26T06:43:17.661Z,12.51
2023-03-26T06:45:57.180Z,13.64
2023-03-26T06:48:44.822Z,12.60
2023-03-26T06:51:31.411Z,11.47
2023-03-26T06:54:18.156Z,12.97
2023-03-26T06:56:53.190Z,13.87
2023-03-26T06:59:39.993Z,12.38
2023-03-26T07:02:26.709Z,12.05
2023-03-26T07:05:14.811Z,13.81
2023-03-26T07:08:01.298Z,13.55
2023-03-26T07:10:44.204Z,12.44
2023-03-26T07:13:34.046Z,11.94
2023-03-26T07:16:22.726Z,13.75
2023-03-26T07:19:09.842Z,14.14
2023-03-26T07:21:40.678Z,13.33
2023-03-26T07:24:24.153Z,12.43
2023-03-26T07:27:16.549Z,12.60
2023-03-26T07:30:20.160Z,13.93
2023-03-26T07:33:09.411Z,13.01
2023-03-26T07:36:10.242Z,12.02
2023-03-26T07:39:03.843Z,13.45
2023-03-26T07:42:14.420Z,13.94
2023-03-26T07:45:32.865Z,12.57
2023-03-26T07:48:27.589Z,11.68
2023-03-26T07:51:18.805Z,13.38
2023-03-26T07:54:10.027Z,14.18
2023-03-26T07:56:59.008Z,13.31
2023-03-26T08:00:00.209Z,12.29
2023-03-26T08:03:17.132Z,13.09
2023-03-26T08:06:38.991Z,13.33
2023-03-26T08:09:39.788Z,12.16
2023-03-26T08:12:53.905Z,12.51
2023-03-26T08:15:32.807Z,14.42
2023-03-26T08:18:12.816Z,13.61
2023-03-26T08:20:54.427Z,12.51
2023-03-26T08:23:50.999Z,11.83
2023-03-26T08:26:44.554Z,13.40
2023-03-26T08:29:45.222Z,13.71
2023-03-26T08:32:16.639Z,12.58
2023-03-26T08:34:45.171Z,11.98
2023-03-26T08:37:13.566Z,13.23
2023-03-26T08:39:42.440Z,14.14
2023-03-26T08:42:19.313Z,13.13
2023-03-26T08:45:11.789Z,12.04
2023-03-26T08:47:45.369Z,12.29
2023-03-26T08:50:34.674Z,14.18
2023-03-26T08:53:28.246Z,13.25
2023-03-26T08:56:19.536Z,12.07
2023-03-26T08:59:11.299Z,12.19
2023-03-26T09:02:01.307Z,13.61
2023-03-26T09:04:35.285Z,12.81
2023-03-26T09:07:35.390Z,12.16
2023-03-26T09:10:05.849Z,11.59
2023-03-26T09:12:49.708Z,11.64
2023-03-26T09:15:34.779Z,13.89
2023-03-26T09:18:34.108Z,12.83
2023-03-26T09:21:28.238Z,11.70
2023-03-26T09:24:34.672Z,12.01
2023-03-26T09:27:27.955Z,13.68
2023-03-26T09:30:14.089Z,13.04
2023-03-26T09:33:01.855Z,12.26
2023-03-26T09:35:38.840Z,11.92
2023-03-26T09:38:36.867Z,11.69
2023-03-26T09:41:13.684Z,11.61
2023-03-26T09:43:44.041Z,11.52
2023-03-26T09:46:20.926Z,11.46
2023-03-26T09:49:30.978Z,11.28
2023-03-26T09:52:52.626Z,10.99
2023-03-26T09:55:49.789Z,10.93
2023-03-26T09:58:42.180Z,12.95
2023-03-26T10:01:33.928Z,13.41
2023-03-26T10:04:20.834Z,12.49
2023-03-26T10:07:01.355Z,11.72
2023-03-26T10:09:56.801Z,11.29
2023-03-26T10:12:33.608Z,11.11
2023-03-26T10:15:38.908Z,11.17
2023-03-26T10:18:32.067Z,13.22
2023-03-26T10:21:02.644Z,13.61
2023-03-26T10:23:39.385Z,13.08
2023-03-26T10:26:10.104Z,12.64
2023-03-26T10:29:12.759Z,12.32
2023-03-26T10:31:47.504Z,12.11
2023-03-26T10:34:55.303Z,12.05
2023-03-26T10:37:47.675Z,12.10
2023-03-26T10:40:36.226Z,12.06
2023-03-26T10:43:32.132Z,11.81
2023-03-26T10:46:37.209Z,11.68
2023-03-26T10:49:44.207Z,14.19
2023-03-26T10:52:18.634Z,15.02
2023-03-26T10:54:48.951Z,13.59
2023-03-26T10:57:22.448Z,13.23
2023-03-26T10:59:54.132Z,15.40
2023-03-26T11:02:38.275Z,15.09
2023-03-26T11:05:14.705Z,13.93
2023-03-26T11:07:42.412Z,13.30
2023-03-26T11:10:24.413Z,13.02
2023-03-26T11:13:16.744Z,12.85
2023-03-26T11:16:02.728Z,12.68
2023-03-26T11:18:47.249Z,12.43
2023-03-26T11:21:21.286Z,12.09
2023-03-26T11:24:05.324Z,11.79
2023-03-26T11:26:43.675Z,11.49
2023-03-26T11:29:36.642Z,11.32
2023-03-26T11:32:10.744Z,11.30
2023-03-26T11:35:02.461Z,11.29
2023-03-26T11:37:39.151Z,11.29
2023-03-26T11:40:36.983Z,11.31
2023-03-26T11:43:08.932Z,11.33
2023-03-26T11:45:42.252Z,11.33
2023-03-26T11:48:23.907Z,11.35
2023-03-26T11:51:06.083Z,11.30
2023-03-26T11:53:38.549Z,11.22
2023-03-26T11:56:06.743Z,12.00
2023-03-26T11:58:42.963Z,13.86
2023-03-26T12:01:16.325Z,14.02
2023-03-26T12:03:56.331Z,13.10
2023-03-26T12:06:27.718Z,12.26
2023-03-26T12:08:57.117Z,11.86
2023-03-26T12:11:28.469Z,13.44
2023-03-26T12:14:02.351Z,14.77
2023-03-26T12:16:30.562Z,13.98
2023-03-26T12:19:18.551Z,13.23
2023-03-26T12:21:51.723Z,12.84
2023-03-26T12:24:31.850Z,12.68
2023-03-26T12:27:22.007Z,14.32
2023-03-26T12:30:00.225Z,15.19
2023-03-26T12:32:46.478Z,14.45
2023-03-26T12:35:22.708Z,13.86
2023-03-26T12:37:51.655Z,13.70
2023-03-26T12:40:25.344Z,13.80
2023-03-26T12:44:52.875Z,14.11
2023-03-26T12:45:44.541Z,14.27
2023-03-26T12:48:15.823Z,14.53
2023-03-26T12:51:00.335Z,14.93
2023-03-26T12:53:42.385Z,14.93
2023-03-26T12:56:21.601Z,14.84
2023-03-26T12:59:09.589Z,14.74
2023-03-26T13:01:52.816Z,15.00
2023-03-26T13:04:45.129Z,14.97
2023-03-26T13:07:42.113Z,14.75
2023-03-26T13:10:41.515Z,14.50
2023-03-26T13:13:42.475Z,14.23
2023-03-26T13:16:22.841Z,13.72
2023-03-26T13:18:55.992Z,13.24
2023-03-26T13:21:49.432Z,12.88
2023-03-26T13:24:41.567Z,12.50
2023-03-26T13:27:09.288Z,12.16
2023-03-26T13:30:14.612Z,11.90
2023-03-26T13:32:59.893Z,11.76
2023-03-26T13:35:44.140Z,11.69
2023-03-26T13:38:21.024Z,11.79
2023-03-26T13:41:09.680Z,12.11
2023-03-26T13:44:02.116Z,12.30
2023-03-26T13:46:45.299Z,12.36
2023-03-26T13:49:29.444Z,12.44
2023-03-26T13:52:02.889Z,12.50
2023-03-26T13:54:37.131Z,12.55
2023-03-26T13:57:33.308Z,12.48
2023-03-26T14:00:13.761Z,12.39
2023-03-26T14:02:42.032Z,12.30
2023-03-26T14:05:35.638Z,12.30
2023-03-26T14:08:24.622Z,12.37
2023-03-26T14:10:58.708Z,12.81
2023-03-26T14:13:33.484Z,14.18
2023-03-26T14:16:13.406Z,15.69
2023-03-26T14:18:52.604Z,16.26
2023-03-26T14:21:55.870Z,17.35
2023-03-26T14:24:45.646Z,19.24
2023-03-26T14:27:50.844Z,20.83
2023-03-26T14:30:35.881Z,21.67
2023-03-26T14:33:28.123Z,21.66
2023-03-26T14:36:09.290Z,20.36
2023-03-26T14:38:47.203Z,18.41
2023-03-26T14:41:48.973Z,17.09
2023-03-26T14:44:47.685Z,15.85
2023-03-26T14:47:20.803Z,14.87
2023-03-26T14:50:08.336Z,14.27
2023-03-26T14:52:39.588Z,13.92
2023-03-26T14:55:18.634Z,13.87
2023-03-26T14:57:59.170Z,14.42
2023-03-26T15:01:03.886Z,14.63
2023-03-26T15:04:13.024Z,14.12
2023-03-26T15:07:02.832Z,13.51
2023-03-26T15:09:56.839Z,13.02
2023-03-26T15:13:11.376Z,12.61
2023-03-26T15:16:22.314Z,12.28
2023-03-26T15:18:56.682Z,12.05
2023-03-26T15:21:27.209Z,12.12
2023-03-26T15:24:03.853Z,12.43
2023-03-26T15:26:52.610Z,13.43
2023-03-26T15:29:39.195Z,15.62
2023-03-26T15:32:44.484Z,17.57
2023-03-26T15:35:49.617Z,19.07
2023-03-26T15:38:29.454Z,19.12
2023-03-26T15:41:21.371Z,17.65
2023-03-26T15:44:22.570Z,16.06
2023-03-26T15:47:02.975Z,14.77
2023-03-26T15:49:50.664Z,13.87
2023-03-26T15:52:33.324Z,13.14
2023-03-26T15:55:27.945Z,12.71
2023-03-26T15:58:01.513Z,12.33
2023-03-26T16:00:35.041Z,12.06
2023-03-26T16:03:31.023Z,11.82
2023-03-26T16:06:02.242Z,11.53
2023-03-26T16:08:47.102Z,11.35
2023-03-26T16:11:52.165Z,11.21
2023-03-26T16:14:36.116Z,11.11
2023-03-26T16:17:10.108Z,11.07
2023-03-26T16:19:41.136Z,11.05
2023-03-26T16:22:15.384Z,11.00
2023-03-26T16:24:47.613Z,10.90
2023-03-26T16:27:15.753Z,10.76
2023-03-26T16:30:13.723Z,10.64
2023-03-26T16:32:45.897Z,10.49
2023-03-26T16:35:33.293Z,10.76
2023-03-26T16:38:14.527Z,13.11
2023-03-26T16:41:15.492Z,13.78
2023-03-26T16:44:02.298Z,12.71
2023-03-26T16:46:41.754Z,11.99
2023-03-26T16:49:22.355Z,11.49
2023-03-26T16:52:14.623Z,11.09
2023-03-26T16:55:03.903Z,10.75
2023-03-26T16:58:17.225Z,10.47
2023-03-26T17:00:49.422Z,10.18
2023-03-26T17:03:45.057Z,9.99
2023-03-26T17:06:31.274Z,9.78
2023-03-26T17:09:06.150Z,9.59
2023-03-26T17:11:45.932Z,9.41
2023-03-26T17:14:31.737Z,9.25
2023-03-26T17:17:02.620Z,9.09
2023-03-26T17:19:41.912Z,8.97
2023-03-26T17:22:36.479Z,8.82
2023-03-26T17:25:37.754Z,8.69
2023-03-26T17:28:48.252Z,8.55
2023-03-26T17:31:37.733Z,8.44
2023-03-26T17:34:47.040Z,8.33
2023-03-26T17:37:24.031Z,8.23
2023-03-26T17:39:57.837Z,8.11
2023-03-26T17:42:33.286Z,8.03
2023-03-26T17:45:20.678Z,7.96
2023-03-26T17:47:58.777Z,9.27
2023-03-26T17:50:31.911Z,11.61
2023-03-26T17:53:06.165Z,11.75
2023-03-26T17:55:38.826Z,10.78
2023-03-26T17:58:22.742Z,10.01
2023-03-26T18:00:58.033Z,9.47
2023-03-26T18:03:34.298Z,9.09
2023-03-26T18:06:31.817Z,8.78
2023-03-26T18:09:11.392Z,8.46
2023-03-26T18:11:51.173Z,8.20
2023-03-26T18:14:45.341Z,7.98
2023-03-26T18:17:13.721Z,7.72
2023-03-26T18:20:03.158Z,7.50
2023-03-26T18:22:31.403Z,7.28
2023-03-26T18:25:02.274Z,7.51
2023-03-26T18:27:40.421Z,9.57
2023-03-26T18:30:18.639Z,11.55
2023-03-26T18:33:00.067Z,11.99
2023-03-26T18:35:42.340Z,10.75
2023-03-26T18:38:35.561Z,9.66
2023-03-26T18:41:11.173Z,8.91
2023-03-26T18:43:44.024Z,8.43
2023-03-26T18:46:14.600Z,8.03
2023-03-26T18:48:43.995Z,7.68
2023-03-26T18:51:12.596Z,7.25
2023-03-26T18:53:54.879Z,7.08
2023-03-26T18:56:36.223Z,8.94
2023-03-26T18:59:06.891Z,11.02
2023-03-26T19:01:37.615Z,11.60
2023-03-26T19:04:08.324Z,10.51
2023-03-26T19:06:41.012Z,9.47
2023-03-26T19:09:28.096Z,8.73
2023-03-26T19:12:18.914Z,8.12
2023-03-26T19:14:54.526Z,7.66
2023-03-26T19:17:26.572Z,7.70
2023-03-26T19:19:57.411Z,9.62
2023-03-26T19:22:26.617Z,11.41
2023-03-26T19:25:00.338Z,11.49
2023-03-26T19:27:28.993Z,10.27
2023-03-26T19:29:57.856Z,9.26
2023-03-26T19:32:34.642Z,8.49
2023-03-26T19:35:04.807Z,7.88
2023-03-26T19:37:33.315Z,7.85
2023-03-26T19:40:19.745Z,9.70
2023-03-26T19:42:49.467Z,11.55
2023-03-26T19:45:23.239Z,12.14
2023-03-26T19:48:00.492Z,11.07
2023-03-26T19:50:42.174Z,9.77
2023-03-26T19:53:28.639Z,8.89
2023-03-26T19:56:11.034Z,8.13
2023-03-26T19:58:43.000Z,7.59
2023-03-26T20:04:05.163Z,10.12
2023-03-26T20:06:42.245Z,11.26
2023-03-26T20:09:13.190Z,10.24
2023-03-26T20:11:41.680Z,9.12
2023-03-26T20:14:25.853Z,8.29
2023-03-26T20:16:54.014Z,7.60
2023-03-26T20:19:25.010Z,7.58
2023-03-26T20:21:53.096Z,9.48
2023-03-26T20:24:21.676Z,11.15
2023-03-26T20:26:49.334Z,11.34
2023-03-26T20:29:17.807Z,10.11
2023-03-26T20:31:46.247Z,8.98
2023-03-26T20:34:17.819Z,8.13
2023-03-26T20:36:46.976Z,7.50
2023-03-26T20:39:14.799Z,7.52
2023-03-26T20:41:48.410Z,9.37
2023-03-26T20:44:19.347Z,11.03
2023-03-26T20:46:49.055Z,10.96
2023-03-26T20:49:18.380Z,9.73
2023-03-26T20:51:46.658Z,8.68
2023-03-26T20:54:21.373Z,7.94
2023-03-26T20:56:49.666Z,7.31
2023-03-26T20:59:21.913Z,6.82
2023-03-26T21:01:51.078Z,6.92
2023-03-26T21:04:19.484Z,8.90
2023-03-26T21:06:48.174Z,10.58
2023-03-26T21:09:23.690Z,10.74
2023-03-26T21:12:42.354Z,9.47
2023-03-26T21:15:20.836Z,8.09
2023-03-26T21:17:52.493Z,7.28
2023-03-26T21:20:22.623Z,6.70
2023-03-26T21:23:06.620Z,6.64
2023-03-26T21:25:41.973Z,8.70
2023-03-26T21:28:42.009Z,10.37
2023-03-26T21:31:18.843Z,9.95
2023-03-26T21:33:48.262Z,8.47
2023-03-26T21:36:19.724Z,7.35
2023-03-26T21:38:50.594Z,6.56
2023-03-26T21:41:24.341Z,6.53
2023-03-26T21:43:52.223Z,8.49
2023-03-26T21:46:20.938Z,10.07
2023-03-26T21:48:49.277Z,9.52
2023-03-26T21:51:17.925Z,8.17
2023-03-26T21:53:46.558Z,7.17
2023-03-26T21:56:36.159Z,6.95
2023-03-26T21:59:51.987Z,9.03
2023-03-26T22:02:25.621Z,9.85
2023-03-26T22:05:01.582Z,8.57
2023-03-26T22:07:45.838Z,7.40
2023-03-26T22:10:13.647Z,6.57
2023-03-26T22:12:41.528Z,6.01
2023-03-26T22:15:13.760Z,6.12
2023-03-26T22:17:42.347Z,8.12
2023-03-26T22:20:14.433Z,9.74
2023-03-26T22:22:48.971Z,9.88
2023-03-26T22:25:18.270Z,8.49
2023-03-26T22:27:51.122Z,7.25
2023-03-26T22:30:20.791Z,6.41
2023-03-26T22:32:49.070Z,5.98
2023-03-26T22:35:17.061Z,7.39
2023-03-26T22:37:45.638Z,9.29
2023-03-26T22:40:13.659Z,9.63
2023-03-26T22:42:41.841Z,8.31
2023-03-26T22:45:10.761Z,7.17
2023-03-26T22:47:40.156Z,6.23
2023-03-26T22:50:09.399Z,6.05
2023-03-26T22:52:37.647Z,7.88
2023-03-26T22:55:06.018Z,9.47
2023-03-26T22:57:34.047Z,9.48
2023-03-26T23:00:09.051Z,8.09
2023-03-26T23:02:37.429Z,6.88
2023-03-26T23:05:05.545Z,5.95
2023-03-26T23:07:34.030Z,5.84
2023-03-26T23:10:02.161Z,7.68
2023-03-26T23:12:29.860Z,9.26
2023-03-26T23:14:58.343Z,9.03
2023-03-26T23:17:26.167Z,7.67
2023-03-26T23:19:54.296Z,6.62
2023-03-26T23:22:22.352Z,5.89
2023-03-26T23:24:51.448Z,5.79
2023-03-26T23:27:22.487Z,7.65
2023-03-26T23:29:50.673Z,9.26
2023-03-26T23:32:23.487Z,9.08
2023-03-26T23:34:52.994Z,7.70
2023-03-26T23:37:23.554Z,6.60
2023-03-26T23:39:52.221Z,5.82
2023-03-26T23:42:28.615Z,5.23
2023-03-26T23:44:57.695Z,4.71
2023-03-26T23:47:25.781Z,4.84
2023-03-26T23:49:53.877Z,6.81
2023-03-26T23:52:21.938Z,8.52
2023-03-26T23:54:49.905Z,9.12
2023-03-26T23:57:18.626Z,7.90
2023-03-26T23:59:46.561Z,6.54
